Time;durP1;ratioP1;P1;durP2;ratioP2;P2;SDS_P1;SDS_P2;PMS_P1;PMS_P2;Temp;Humidity;BMP_temperature;BMP_pressure;BME280_temperature;BME280_humidity;BME280_pressure;Samples;Min_cycle;Max_cycle;Signal;HPM_P1;HPM_P2
2021/10/22 00:01:44;;;;;;;9.60;3.20;;;;;;;;;;5018865;28;20212;-72
2021/10/22 00:04:12;;;;;;;7.27;3.13;;;;;;;;;;5018578;28;20241;-72
2021/10/22 00:06:40;;;;;;;10.47;2.80;;;;;;;;;;5018804;28;20326;-73
2021/10/22 00:09:11;;;;;;;8.37;2.70;;;;;;;;;;5018750;28;20659;-73
2021/10/22 00:11:43;;;;;;;3.73;2.70;;;;;;;;;;5018270;28;20228;-73
2021/10/22 00:14:11;;;;;;;6.03;2.57;;;;;;;;;;5017748;28;20317;-73
2021/10/22 00:16:41;;;;;;;3.87;2.50;;;;;;;;;;5018398;28;20598;-73
2021/10/22 00:19:09;;;;;;;5.13;2.57;;;;;;;;;;5018368;28;20255;-73
2021/10/22 00:21:37;;;;;;;7.03;2.20;;;;;;;;;;5017574;28;20208;-74
2021/10/22 00:24:06;;;;;;;6.73;2.50;;;;;;;;;;5002724;28;20721;-73
2021/10/22 00:26:34;;;;;;;5.33;2.60;;;;;;;;;;4998875;28;20293;-73
2021/10/22 00:29:02;;;;;;;4.47;2.40;;;;;;;;;;4998547;28;20223;-73
2021/10/22 00:31:30;;;;;;;5.10;2.07;;;;;;;;;;4998591;28;20587;-73
2021/10/22 00:33:59;;;;;;;4.80;2.53;;;;;;;;;;4998661;28;20241;-74
2021/10/22 00:36:27;;;;;;;4.87;2.60;;;;;;;;;;4998502;28;20216;-73
2021/10/22 00:38:55;;;;;;;4.77;2.07;;;;;;;;;;4998284;28;20208;-71
2021/10/22 00:41:25;;;;;;;8.70;2.57;;;;;;;;;;4998585;28;20240;-72
2021/10/22 00:43:53;;;;;;;7.40;3.00;;;;;;;;;;4997964;28;20235;-72
2021/10/22 00:46:24;;;;;;;5.50;2.63;;;;;;;;;;4998442;28;20219;-72
2021/10/22 00:48:52;;;;;;;8.47;2.70;;;;;;;;;;4998440;28;20205;-72
2021/10/22 00:51:21;;;;;;;6.07;2.80;;;;;;;;;;5010563;28;20582;-72
2021/10/22 00:53:49;;;;;;;6.23;2.60;;;;;;;;;;5018006;28;20320;-73
2021/10/22 00:56:17;;;;;;;8.43;3.30;;;;;;;;;;5017844;28;20669;-73
2021/10/22 00:58:46;;;;;;;7.50;3.77;;;;;;;;;;5017507;28;20586;-73
2021/10/22 01:01:14;;;;;;;7.77;3.23;;;;;;;;;;5017971;28;20243;-73
2021/10/22 01:03:42;;;;;;;6.47;3.37;;;;;;;;;;5017683;28;20594;-73
2021/10/22 01:06:10;;;;;;;9.07;3.37;;;;;;;;;;5017897;28;20211;-73
2021/10/22 01:08:39;;;;;;;9.27;3.33;;;;;;;;;;5017777;28;20218;-73
2021/10/22 01:11:08;;;;;;;9.27;3.40;;;;;;;;;;5017613;28;20216;-73
2021/10/22 01:13:37;;;;;;;6.80;2.93;;;;;;;;;;5017449;28;20601;-73
2021/10/22 01:16:05;;;;;;;7.43;3.13;;;;;;;;;;5017300;28;20244;-73
2021/10/22 01:18:34;;;;;;;9.13;4.40;;;;;;;;;;5017510;28;20616;-73
2021/10/22 01:21:03;;;;;;;7.60;3.20;;;;;;;;;;5017465;28;20209;-73
2021/10/22 01:23:31;;;;;;;9.57;3.57;;;;;;;;;;5007611;28;20229;-73
2021/10/22 01:26:00;;;;;;;10.67;3.90;;;;;;;;;;4998099;28;20239;-73
2021/10/22 01:28:29;;;;;;;7.57;3.40;;;;;;;;;;4997661;28;20235;-72
2021/10/22 01:30:57;;;;;;;7.97;3.23;;;;;;;;;;4997830;28;20263;-73
2021/10/22 01:33:29;;;;;;;6.37;3.17;;;;;;;;;;5000760;28;20243;-73
2021/10/22 01:35:57;;;;;;;7.10;3.00;;;;;;;;;;5002047;28;20209;-73
2021/10/22 01:38:27;;;;;;;6.63;3.50;;;;;;;;;;5001768;28;20571;-73
2021/10/22 01:40:56;;;;;;;5.33;3.17;;;;;;;;;;5008196;28;20208;-73
2021/10/22 01:43:24;;;;;;;5.37;2.93;;;;;;;;;;5020837;28;20264;-73
2021/10/22 01:45:52;;;;;;;10.83;3.03;;;;;;;;;;5021301;28;20208;-73
2021/10/22 01:48:20;;;;;;;8.77;3.20;;;;;;;;;;5021314;28;20212;-73
2021/10/22 01:50:48;;;;;;;4.63;2.80;;;;;;;;;;5021290;28;20287;-73
2021/10/22 01:53:17;;;;;;;8.83;3.00;;;;;;;;;;5020770;28;20571;-72
2021/10/22 01:55:46;;;;;;;5.90;3.20;;;;;;;;;;5021250;28;20219;-73
2021/10/22 01:58:14;;;;;;;6.87;2.80;;;;;;;;;;5020919;28;20223;-72
2021/10/22 02:00:43;;;;;;;8.10;3.17;;;;;;;;;;5021033;28;20660;-72
2021/10/22 02:03:11;;;;;;;6.33;2.57;;;;;;;;;;5020875;28;20224;-73
2021/10/22 02:05:39;;;;;;;7.27;3.10;;;;;;;;;;5021106;28;20251;-73
2021/10/22 02:08:08;;;;;;;8.97;3.07;;;;;;;;;;5020943;28;20204;-73
2021/10/22 02:10:37;;;;;;;5.77;2.83;;;;;;;;;;5020964;28;20296;-73
2021/10/22 02:13:06;;;;;;;4.27;2.77;;;;;;;;;;5020342;28;20573;-73
2021/10/22 02:15:34;;;;;;;6.17;2.97;;;;;;;;;;5020489;28;20240;-73
2021/10/22 02:18:02;;;;;;;5.80;2.90;;;;;;;;;;5020883;28;20295;-74
2021/10/22 02:20:30;;;;;;;8.37;3.53;;;;;;;;;;5020845;28;20207;-72
2021/10/22 02:22:58;;;;;;;6.07;2.90;;;;;;;;;;5014899;28;20308;-72
2021/10/22 02:25:26;;;;;;;5.63;3.17;;;;;;;;;;5000901;28;20215;-71
2021/10/22 02:27:55;;;;;;;6.13;3.00;;;;;;;;;;5000981;28;20208;-74
2021/10/22 02:30:25;;;;;;;4.80;3.07;;;;;;;;;;5000483;28;20208;-73
2021/10/22 02:32:53;;;;;;;11.10;3.83;;;;;;;;;;5007252;28;20236;-72
2021/10/22 02:35:20;;;;;;;5.23;2.90;;;;;;;;;;5020436;28;20218;-73
2021/10/22 02:37:48;;;;;;;6.80;3.57;;;;;;;;;;5020264;28;20208;-72
2021/10/22 02:40:17;;;;;;;6.30;3.33;;;;;;;;;;5020213;28;20585;-73
2021/10/22 02:42:45;;;;;;;7.93;2.87;;;;;;;;;;5020183;28;20695;-73
2021/10/22 02:45:14;;;;;;;6.77;3.60;;;;;;;;;;5019189;28;20236;-73
2021/10/22 02:47:47;;;;;;;6.23;3.03;;;;;;;;;;5020064;28;20236;-73
2021/10/22 02:50:17;;;;;;;7.27;4.40;;;;;;;;;;5020088;28;20718;-73
2021/10/22 02:52:45;;;;;;;6.67;2.97;;;;;;;;;;5020014;28;20236;-73
2021/10/22 02:55:13;;;;;;;4.70;3.03;;;;;;;;;;5019968;28;20668;-73
2021/10/22 02:57:41;;;;;;;7.30;3.30;;;;;;;;;;5019903;28;20641;-73
2021/10/22 03:00:11;;;;;;;9.47;3.00;;;;;;;;;;5019739;28;20212;-73
2021/10/22 03:02:40;;;;;;;12.87;4.40;;;;;;;;;;5019741;28;20307;-73
2021/10/22 03:05:10;;;;;;;9.77;4.27;;;;;;;;;;5019926;28;20227;-73
2021/10/22 03:07:39;;;;;;;12.17;4.33;;;;;;;;;;5019984;28;20208;-73
2021/10/22 03:10:07;;;;;;;7.40;4.27;;;;;;;;;;5019939;28;20287;-73
2021/10/22 03:12:35;;;;;;;6.63;3.40;;;;;;;;;;5019632;28;20474;-73
2021/10/22 03:15:03;;;;;;;5.70;3.40;;;;;;;;;;5019124;28;20331;-73
2021/10/22 03:17:31;;;;;;;11.07;3.90;;;;;;;;;;5019453;28;20208;-73
2021/10/22 03:19:59;;;;;;;13.47;4.57;;;;;;;;;;5019804;28;20243;-73
2021/10/22 03:22:29;;;;;;;9.07;4.30;;;;;;;;;;5017449;28;20223;-73
2021/10/22 03:24:57;;;;;;;11.10;4.70;;;;;;;;;;5000113;28;20208;-73
2021/10/22 03:27:26;;;;;;;7.93;3.77;;;;;;;;;;4999665;28;20209;-72
2021/10/22 03:29:54;;;;;;;7.23;3.83;;;;;;;;;;4999615;28;20556;-73
2021/10/22 03:32:25;;;;;;;4.30;2.47;;;;;;;;;;4999480;28;20233;-73
2021/10/22 03:34:53;;;;;;;3.73;1.83;;;;;;;;;;4999519;28;20691;-73
2021/10/22 03:37:21;;;;;;;1.77;1.40;;;;;;;;;;4999698;28;20205;-73
2021/10/22 03:39:51;;;;;;;4.47;1.30;;;;;;;;;;4999482;28;20696;-73
2021/10/22 03:42:19;;;;;;;1.07;0.90;;;;;;;;;;4999463;28;20235;-73
2021/10/22 03:44:47;;;;;;;0.90;0.80;;;;;;;;;;4999383;28;20219;-73
2021/10/22 03:47:15;;;;;;;4.53;1.40;;;;;;;;;;4999175;28;20219;-73
2021/10/22 03:49:43;;;;;;;2.10;1.00;;;;;;;;;;4999131;28;20209;-73
2021/10/22 03:52:11;;;;;;;4.63;1.07;;;;;;;;;;5018796;28;20239;-73
2021/10/22 03:54:39;;;;;;;1.73;0.90;;;;;;;;;;5018616;28;20228;-73
2021/10/22 03:57:08;;;;;;;2.20;0.80;;;;;;;;;;5018729;28;20239;-73
2021/10/22 03:59:36;;;;;;;1.43;0.93;;;;;;;;;;5018405;28;20243;-73
2021/10/22 04:02:04;;;;;;;3.10;0.90;;;;;;;;;;5018657;28;20664;-73
2021/10/22 04:04:34;;;;;;;3.30;0.80;;;;;;;;;;5018338;28;20656;-72
2021/10/22 04:07:02;;;;;;;2.27;0.80;;;;;;;;;;5018742;28;20254;-74
2021/10/22 04:09:35;;;;;;;3.87;1.00;;;;;;;;;;5018905;28;20243;-70
2021/10/22 04:12:03;;;;;;;4.17;1.33;;;;;;;;;;5017463;28;20255;-73
2021/10/22 04:14:32;;;;;;;2.23;1.20;;;;;;;;;;5016013;28;20268;-72
2021/10/22 04:17:00;;;;;;;3.57;1.17;;;;;;;;;;5018043;28;20197;-71
2021/10/22 04:19:28;;;;;;;5.60;1.10;;;;;;;;;;5014924;28;20204;-73
2021/10/22 04:21:56;;;;;;;2.90;1.10;;;;;;;;;;5025983;28;20290;-73
2021/10/22 04:24:25;;;;;;;2.50;1.10;;;;;;;;;;5023248;28;20283;-70
2021/10/22 04:26:53;;;;;;;1.60;1.50;;;;;;;;;;5013784;28;20239;-72
2021/10/22 04:29:21;;;;;;;2.73;0.90;;;;;;;;;;5014183;28;20259;-72
2021/10/22 04:31:50;;;;;;;1.60;0.87;;;;;;;;;;5006066;28;20287;-72
2021/10/22 04:34:19;;;;;;;3.33;1.10;;;;;;;;;;5012483;28;20311;-72
2021/10/22 04:36:47;;;;;;;3.77;1.17;;;;;;;;;;5018028;28;20236;-72
2021/10/22 04:42:01;;;;;;;3.33;1.10;;;;;;;;;;5017845;28;20235;-76
2021/10/22 04:44:30;;;;;;;2.23;0.93;;;;;;;;;;5015596;28;20723;-72
2021/10/22 04:47:00;;;;;;;2.23;1.10;;;;;;;;;;5017229;28;20232;-71
2021/10/22 11:09:44;;;;;;;8.17;1.50;;;;;;;;;;5035520;28;20230;-73
2021/10/22 11:12:12;;;;;;;1.37;0.90;;;;;;;;;;5029078;28;20593;-72
2021/10/22 11:14:41;;;;;;;2.20;1.23;;;;;;;;;;5046265;28;20223;-71
2021/10/22 11:19:45;;;;;;;7.23;3.13;;;;;;;;;;5179087;22;20230;-76
2021/10/22 11:22:17;;;;;;;5.23;2.47;;;;;;;;;;5042081;28;20237;-75
2021/10/22 11:24:46;;;;;;;8.90;2.53;;;;;;;;;;5047312;28;20199;-76
2021/10/22 11:27:16;;;;;;;2.73;2.03;;;;;;;;;;5041904;28;20214;-76
2021/10/22 11:29:48;;;;;;;4.90;2.33;;;;;;;;;;5027968;28;20219;-75
2021/10/22 11:32:17;;;;;;;5.10;2.87;;;;;;;;;;5022743;28;20203;-73
2021/10/22 11:34:47;;;;;;;4.17;2.57;;;;;;;;;;5026485;28;20238;-73
2021/10/22 11:37:16;;;;;;;3.00;1.73;;;;;;;;;;5026905;28;20205;-65
2021/10/22 11:39:49;;;;;;;6.73;3.13;;;;;;;;;;5024220;28;20684;-63
2021/10/22 11:42:24;;;;;;;4.33;2.27;;;;;;;;;;5021067;28;20633;-65
2021/10/22 11:44:56;;;;;;;2.47;1.77;;;;;;;;;;5028772;28;20207;-65
2021/10/22 11:47:40;;;;;;;2.17;1.23;;;;;;;;;;5023888;28;20577;-65
2021/10/22 11:50:18;;;;;;;2.57;1.47;;;;;;;;;;5015009;28;20248;-67
2021/10/22 11:52:54;;;;;;;4.00;1.63;;;;;;;;;;5018683;28;20235;-65
2021/10/22 11:55:32;;;;;;;3.57;1.30;;;;;;;;;;5018961;28;20260;-65
2021/10/22 11:58:07;;;;;;;1.40;1.30;;;;;;;;;;5017943;28;20230;-65
2021/10/22 12:00:36;;;;;;;3.07;1.60;;;;;;;;;;5018668;28;20200;-64
2021/10/22 12:03:05;;;;;;;2.40;1.50;;;;;;;;;;5015694;28;20607;-69
2021/10/22 12:05:33;;;;;;;1.90;1.30;;;;;;;;;;5017526;28;20201;-67
2021/10/22 12:08:01;;;;;;;1.40;1.07;;;;;;;;;;5018451;28;20231;-67
2021/10/22 12:10:37;;;;;;;3.63;1.50;;;;;;;;;;5017833;28;20211;-67
2021/10/22 12:13:05;;;;;;;1.63;1.13;;;;;;;;;;5017360;28;20218;-66
2021/10/22 12:15:33;;;;;;;2.07;1.33;;;;;;;;;;5017873;28;20228;-67
2021/10/22 12:18:02;;;;;;;1.93;1.00;;;;;;;;;;5016103;28;20303;-66
2021/10/22 12:20:30;;;;;;;1.67;1.40;;;;;;;;;;5017087;28;20266;-66
2021/10/22 12:22:59;;;;;;;1.30;1.00;;;;;;;;;;5017959;28;20204;-67
2021/10/22 12:25:28;;;;;;;1.67;1.17;;;;;;;;;;5018079;28;20267;-65
2021/10/22 12:27:58;;;;;;;1.53;0.97;;;;;;;;;;5015056;28;20226;-65
2021/10/22 12:30:27;;;;;;;1.63;1.30;;;;;;;;;;5016895;28;20205;-67
2021/10/22 12:32:55;;;;;;;1.80;1.10;;;;;;;;;;5014859;28;20207;-66
2021/10/22 12:35:27;;;;;;;1.47;0.93;;;;;;;;;;5017254;28;20220;-67
2021/10/22 12:38:06;;;;;;;1.53;0.87;;;;;;;;;;5016872;28;20219;-66
2021/10/22 12:40:36;;;;;;;2.57;1.10;;;;;;;;;;5017637;28;20544;-64
2021/10/22 12:43:09;;;;;;;4.73;1.20;;;;;;;;;;5017557;28;20196;-65
2021/10/22 12:45:41;;;;;;;3.53;2.10;;;;;;;;;;5015511;28;20679;-66
2021/10/22 12:48:10;;;;;;;1.23;1.20;;;;;;;;;;5015644;28;20224;-67
2021/10/22 12:50:39;;;;;;;4.10;1.50;;;;;;;;;;5016240;28;20215;-67
2021/10/22 12:53:08;;;;;;;3.07;1.80;;;;;;;;;;5017100;28;20209;-66
2021/10/22 12:55:37;;;;;;;3.90;1.20;;;;;;;;;;5016818;28;20224;-66
2021/10/22 12:58:19;;;;;;;1.67;1.07;;;;;;;;;;5017660;28;20318;-66
2021/10/22 13:01:04;;;;;;;3.90;1.17;;;;;;;;;;5012385;28;20212;-67
2021/10/22 13:03:32;;;;;;;3.33;1.03;;;;;;;;;;5015725;28;20212;-67
2021/10/22 13:06:09;;;;;;;1.37;1.00;;;;;;;;;;5017579;28;20208;-66
2021/10/22 13:08:42;;;;;;;2.43;1.07;;;;;;;;;;5017641;28;20266;-66
2021/10/22 13:11:23;;;;;;;2.20;0.70;;;;;;;;;;5017955;28;20208;-66
2021/10/22 13:14:15;;;;;;;1.97;0.90;;;;;;;;;;5017961;28;20216;-66
2021/10/22 13:22:10;;;;;;;2.50;1.00;;;;;;;;;;5017367;28;20244;-67
2021/10/22 13:24:38;;;;;;;2.97;1.97;;;;;;;;;;5015035;28;20212;-66
2021/10/22 13:27:06;;;;;;;3.53;0.90;;;;;;;;;;5005147;28;20208;-66
2021/10/22 13:29:36;;;;;;;8.33;1.60;;;;;;;;;;5020821;28;20228;-65
2021/10/22 13:32:04;;;;;;;1.47;1.00;;;;;;;;;;5019307;28;20211;-65
2021/10/22 13:34:32;;;;;;;1.27;0.87;;;;;;;;;;5020438;28;20210;-64
2021/10/22 13:37:00;;;;;;;2.13;1.23;;;;;;;;;;5020074;28;20613;-63
2021/10/22 13:39:28;;;;;;;3.90;1.10;;;;;;;;;;5019869;28;20230;-64
2021/10/22 13:41:56;;;;;;;0.77;0.70;;;;;;;;;;5018383;28;20200;-65
2021/10/22 13:44:24;;;;;;;2.57;1.00;;;;;;;;;;5020363;28;20208;-65
2021/10/22 13:46:54;;;;;;;1.83;1.20;;;;;;;;;;5018005;28;20287;-65
2021/10/22 13:49:22;;;;;;;1.53;1.00;;;;;;;;;;5019798;28;20267;-65
2021/10/22 13:51:50;;;;;;;2.30;0.93;;;;;;;;;;5019968;28;20216;-65
2021/10/22 13:54:17;;;;;;;0.77;0.70;;;;;;;;;;5020278;28;20208;-65
2021/10/22 13:56:45;;;;;;;1.10;0.80;;;;;;;;;;5020504;28;20223;-65
2021/10/22 13:59:13;;;;;;;3.73;0.90;;;;;;;;;;5017690;28;20589;-65
2021/10/22 14:01:41;;;;;;;0.70;0.70;;;;;;;;;;5020452;28;20226;-65
2021/10/22 14:04:11;;;;;;;3.47;2.37;;;;;;;;;;5019904;28;20263;-65
2021/10/22 14:06:39;;;;;;;3.33;1.20;;;;;;;;;;5019897;28;20203;-64
2021/10/22 14:09:07;;;;;;;1.70;1.20;;;;;;;;;;5018593;28;20595;-64
2021/10/22 14:11:40;;;;;;;1.60;1.20;;;;;;;;;;5019919;28;20208;-64
2021/10/22 14:14:18;;;;;;;1.20;0.90;;;;;;;;;;5020091;28;20204;-64
2021/10/22 14:16:57;;;;;;;1.27;0.90;;;;;;;;;;5020193;28;20704;-63
2021/10/22 14:19:54;;;;;;;1.40;1.00;;;;;;;;;;5020083;28;20235;-63
2021/10/22 14:30:38;;;;;;;0.70;0.70;;;;;;;;;;5016808;28;20212;-64
2021/10/22 14:33:07;;;;;;;0.90;0.60;;;;;;;;;;5020242;28;20208;-65
2021/10/22 14:35:37;;;;;;;1.73;1.10;;;;;;;;;;5019220;28;20737;-65
2021/10/22 14:38:05;;;;;;;1.63;0.80;;;;;;;;;;5019632;28;20255;-65
2021/10/22 14:40:35;;;;;;;0.80;0.80;;;;;;;;;;5018504;28;20270;-65
2021/10/22 14:43:05;;;;;;;2.13;0.90;;;;;;;;;;5019810;28;20219;-65
2021/10/22 14:45:42;;;;;;;1.10;1.00;;;;;;;;;;5020039;28;20200;-65
2021/10/22 14:48:14;;;;;;;1.77;1.00;;;;;;;;;;5019789;28;20315;-65
2021/10/22 14:50:46;;;;;;;0.80;0.80;;;;;;;;;;5019572;28;20212;-65
2021/10/22 14:53:32;;;;;;;3.17;0.97;;;;;;;;;;5019387;28;20212;-64
2021/10/22 14:56:01;;;;;;;3.53;0.90;;;;;;;;;;5019668;28;20227;-64
2021/10/22 14:58:29;;;;;;;2.80;0.87;;;;;;;;;;5019343;28;20236;-64
2021/10/22 15:00:57;;;;;;;0.80;0.80;;;;;;;;;;5019463;28;20299;-64
2021/10/22 15:03:25;;;;;;;1.03;0.93;;;;;;;;;;5019200;28;20211;-64
2021/10/22 15:05:55;;;;;;;1.10;1.10;;;;;;;;;;5018852;28;20299;-65
2021/10/22 15:08:23;;;;;;;1.37;1.27;;;;;;;;;;5019078;28;20235;-64
2021/10/22 15:10:52;;;;;;;1.97;1.33;;;;;;;;;;5019134;28;20213;-64
2021/10/22 15:13:20;;;;;;;2.53;1.23;;;;;;;;;;5018921;28;20216;-64
2021/10/22 15:15:48;;;;;;;1.27;1.20;;;;;;;;;;5018661;28;20235;-64
2021/10/22 15:18:19;;;;;;;1.13;1.00;;;;;;;;;;5018022;28;20232;-64
2021/10/22 15:20:48;;;;;;;2.60;1.83;;;;;;;;;;5018030;28;20235;-64
2021/10/22 15:23:17;;;;;;;1.27;1.20;;;;;;;;;;5018319;28;20311;-64
2021/10/22 15:25:45;;;;;;;1.40;1.30;;;;;;;;;;5018994;28;20208;-64
2021/10/22 15:28:13;;;;;;;1.73;1.00;;;;;;;;;;5019326;28;20709;-64
2021/10/22 15:30:44;;;;;;;1.57;1.30;;;;;;;;;;5019013;28;20215;-64
2021/10/22 15:33:12;;;;;;;4.87;1.30;;;;;;;;;;5017973;28;20211;-64
2021/10/22 15:35:40;;;;;;;1.57;1.47;;;;;;;;;;5017701;28;20211;-64
2021/10/22 15:38:08;;;;;;;2.97;1.47;;;;;;;;;;5016978;28;20230;-64
2021/10/22 15:40:38;;;;;;;1.77;1.00;;;;;;;;;;5016869;28;20722;-65
2021/10/22 15:43:06;;;;;;;1.00;0.90;;;;;;;;;;5015752;28;20200;-67
2021/10/22 15:45:35;;;;;;;1.97;1.53;;;;;;;;;;5018791;28;20212;-68
2021/10/22 15:48:03;;;;;;;1.40;1.23;;;;;;;;;;5018437;28;20697;-65
2021/10/22 15:50:31;;;;;;;1.47;1.37;;;;;;;;;;5018356;28;20212;-68
2021/10/22 15:52:59;;;;;;;1.47;1.17;;;;;;;;;;5018455;28;20686;-68
2021/10/22 15:55:27;;;;;;;3.93;1.20;;;;;;;;;;5018300;28;20216;-68
2021/10/22 15:57:57;;;;;;;2.50;1.23;;;;;;;;;;5017439;28;20228;-68
2021/10/22 16:00:27;;;;;;;2.00;1.37;;;;;;;;;;5013293;28;20597;-68
2021/10/22 16:05:38;;;;;;;1.60;1.00;;;;;;;;;;5017776;28;20663;-68
2021/10/22 16:08:19;;;;;;;3.97;1.47;;;;;;;;;;5018321;28;20235;-68
2021/10/22 16:10:52;;;;;;;3.23;1.60;;;;;;;;;;5018435;28;20215;-68
2021/10/22 16:13:24;;;;;;;4.73;1.57;;;;;;;;;;5017999;28;20216;-68
2021/10/22 16:16:03;;;;;;;2.17;1.63;;;;;;;;;;5018030;28;20262;-68
2021/10/22 16:18:31;;;;;;;3.10;1.80;;;;;;;;;;5018150;28;20224;-68
2021/10/22 16:20:59;;;;;;;4.93;1.50;;;;;;;;;;5017614;28;20275;-68
2021/10/22 16:23:27;;;;;;;1.87;1.33;;;;;;;;;;5018222;28;20208;-68
2021/10/22 16:25:56;;;;;;;2.97;1.63;;;;;;;;;;5018167;28;20208;-67
2021/10/22 16:28:25;;;;;;;2.60;1.20;;;;;;;;;;5018521;28;20231;-68
2021/10/22 16:30:53;;;;;;;2.00;1.33;;;;;;;;;;5018250;28;20208;-68
2021/10/22 16:35:39;;;;;;;3.27;1.50;;;;;;;;;;5018117;28;20218;-68
2021/10/22 16:36:10;;;;;;;5.03;2.83;;;;;;;;;;5017677;28;20208;-68
2021/10/22 16:38:38;;;;;;;4.03;2.40;;;;;;;;;;5013167;28;20220;-68
2021/10/22 16:41:06;;;;;;;2.33;1.77;;;;;;;;;;5013769;28;20225;-68
2021/10/22 16:43:35;;;;;;;2.33;2.07;;;;;;;;;;5017765;28;20581;-68
2021/10/22 16:46:08;;;;;;;1.60;1.50;;;;;;;;;;5017963;28;20291;-68
2021/10/22 16:48:36;;;;;;;3.57;1.40;;;;;;;;;;5017661;28;20622;-68
2021/10/22 16:51:04;;;;;;;3.03;1.50;;;;;;;;;;5017692;28;20218;-68
2021/10/22 16:53:35;;;;;;;1.27;1.13;;;;;;;;;;5017790;28;20208;-68
2021/10/22 16:56:04;;;;;;;2.63;1.43;;;;;;;;;;5017782;28;20208;-68
2021/10/22 16:58:32;;;;;;;2.87;1.80;;;;;;;;;;5017675;28;20230;-68
2021/10/22 17:01:03;;;;;;;2.97;1.60;;;;;;;;;;5017462;28;20660;-68
2021/10/22 17:03:31;;;;;;;4.40;2.10;;;;;;;;;;5016854;28;20246;-67
2021/10/22 17:05:59;;;;;;;4.57;1.43;;;;;;;;;;5017517;28;20212;-67
2021/10/22 17:08:27;;;;;;;1.70;1.47;;;;;;;;;;5017654;28;20224;-67
2021/10/22 17:10:55;;;;;;;1.20;1.10;;;;;;;;;;5017771;28;20686;-67
2021/10/22 17:13:23;;;;;;;1.60;1.50;;;;;;;;;;5017549;28;20208;-68
2021/10/22 17:15:51;;;;;;;1.90;1.43;;;;;;;;;;5017320;28;20203;-67
2021/10/22 17:18:21;;;;;;;3.47;1.40;;;;;;;;;;5017319;28;20236;-67
2021/10/22 17:20:48;;;;;;;2.47;1.40;;;;;;;;;;5016885;28;20248;-68
2021/10/22 17:23:16;;;;;;;4.23;1.50;;;;;;;;;;5017470;28;20204;-68
2021/10/22 17:25:45;;;;;;;2.53;1.73;;;;;;;;;;5017104;28;20218;-67
2021/10/22 17:28:14;;;;;;;2.37;1.17;;;;;;;;;;5017807;28;20709;-67
2021/10/22 17:30:42;;;;;;;3.97;1.67;;;;;;;;;;5017408;28;20214;-67
2021/10/22 17:33:10;;;;;;;4.90;1.30;;;;;;;;;;5017400;28;20214;-68
2021/10/22 17:35:40;;;;;;;2.97;1.20;;;;;;;;;;5016805;28;20208;-68
2021/10/22 17:38:07;;;;;;;2.27;1.30;;;;;;;;;;5009710;28;20236;-70
2021/10/22 17:40:36;;;;;;;2.47;1.87;;;;;;;;;;5017114;28;20208;-68
2021/10/22 17:43:04;;;;;;;7.10;2.33;;;;;;;;;;5016570;28;20682;-68
2021/10/22 17:45:32;;;;;;;4.07;2.20;;;;;;;;;;5016846;28;20196;-69
2021/10/22 17:48:00;;;;;;;5.70;1.90;;;;;;;;;;5013804;28;20216;-69
2021/10/22 17:50:28;;;;;;;2.83;1.53;;;;;;;;;;5015010;28;20201;-70
2021/10/22 17:52:57;;;;;;;2.87;1.37;;;;;;;;;;5016741;28;20205;-70
2021/10/22 17:55:25;;;;;;;4.73;1.53;;;;;;;;;;5016737;28;20212;-70
2021/10/22 17:57:53;;;;;;;4.73;1.60;;;;;;;;;;5016947;28;20332;-70
2021/10/22 18:00:21;;;;;;;2.50;1.50;;;;;;;;;;5017048;28;20212;-70
2021/10/22 18:02:50;;;;;;;4.90;2.17;;;;;;;;;;5016753;28;20644;-70
2021/10/22 18:05:18;;;;;;;2.23;1.77;;;;;;;;;;5016864;28;20218;-70
2021/10/22 18:07:46;;;;;;;2.97;2.10;;;;;;;;;;5015599;28;20197;-70
2021/10/22 18:10:15;;;;;;;4.60;1.80;;;;;;;;;;5016155;28;20209;-70
2021/10/22 18:12:44;;;;;;;2.67;1.70;;;;;;;;;;5016045;28;20208;-69
2021/10/22 18:15:12;;;;;;;1.83;1.60;;;;;;;;;;5015452;28;20200;-69
2021/10/22 18:17:40;;;;;;;4.03;2.00;;;;;;;;;;5020083;28;20247;-69
2021/10/22 18:20:13;;;;;;;1.57;1.47;;;;;;;;;;5019747;28;20266;-69
2021/10/22 18:22:41;;;;;;;2.53;1.40;;;;;;;;;;5020293;28;20207;-69
2021/10/22 18:25:09;;;;;;;3.17;2.03;;;;;;;;;;5020161;28;20209;-70
2021/10/22 18:27:38;;;;;;;2.70;1.77;;;;;;;;;;5020174;28;20215;-69
2021/10/22 18:30:07;;;;;;;4.63;1.70;;;;;;;;;;5020422;28;20291;-69
2021/10/22 18:32:36;;;;;;;4.77;2.07;;;;;;;;;;5019776;28;20204;-69
2021/10/22 18:35:06;;;;;;;3.13;1.60;;;;;;;;;;5019600;28;20259;-69
2021/10/22 18:37:34;;;;;;;7.47;2.27;;;;;;;;;;5019965;28;20228;-69
2021/10/22 18:40:02;;;;;;;3.30;2.13;;;;;;;;;;5019543;28;20679;-69
2021/10/22 18:42:30;;;;;;;2.87;1.60;;;;;;;;;;5019632;28;20212;-69
2021/10/22 18:44:59;;;;;;;3.63;1.80;;;;;;;;;;5019819;28;20216;-69
2021/10/22 18:47:28;;;;;;;7.60;3.97;;;;;;;;;;5019664;28;20204;-69
2021/10/22 18:49:58;;;;;;;6.33;2.80;;;;;;;;;;5019273;28;20228;-69
2021/10/22 18:52:26;;;;;;;5.47;2.80;;;;;;;;;;5019540;28;20220;-69
2021/10/22 18:54:54;;;;;;;2.67;2.30;;;;;;;;;;5019621;28;20227;-69
2021/10/22 18:57:23;;;;;;;4.40;2.17;;;;;;;;;;5019262;28;20216;-69
2021/10/22 18:59:52;;;;;;;5.27;1.83;;;;;;;;;;5019429;28;20236;-69
2021/10/22 19:02:22;;;;;;;6.17;1.93;;;;;;;;;;5019435;28;20208;-69
2021/10/22 19:04:53;;;;;;;4.57;2.30;;;;;;;;;;5019276;28;20227;-69
2021/10/22 19:07:21;;;;;;;4.43;1.80;;;;;;;;;;5019066;28;20235;-69
2021/10/22 19:09:49;;;;;;;4.30;1.70;;;;;;;;;;5019255;28;20224;-70
2021/10/22 19:12:17;;;;;;;2.23;1.67;;;;;;;;;;5019113;28;20220;-70
2021/10/22 19:14:52;;;;;;;2.87;1.73;;;;;;;;;;5018981;28;20560;-70
2021/10/22 19:17:23;;;;;;;4.90;1.93;;;;;;;;;;5019037;28;20204;-70
2021/10/22 19:19:54;;;;;;;6.80;1.90;;;;;;;;;;5019010;28;20275;-70
2021/10/22 19:22:22;;;;;;;4.57;2.20;;;;;;;;;;5018821;28;20699;-70
2021/10/22 19:24:50;;;;;;;3.50;1.87;;;;;;;;;;5018770;28;20204;-70
2021/10/22 19:27:19;;;;;;;3.97;1.90;;;;;;;;;;5018030;28;20204;-70
2021/10/22 19:29:47;;;;;;;4.20;1.83;;;;;;;;;;5019362;28;20224;-70
2021/10/22 19:32:15;;;;;;;6.13;1.87;;;;;;;;;;5019105;28;20250;-70
2021/10/22 19:34:45;;;;;;;5.03;2.17;;;;;;;;;;5018522;28;20208;-70
2021/10/22 19:37:13;;;;;;;3.57;2.10;;;;;;;;;;5018911;28;20219;-70
2021/10/22 19:39:42;;;;;;;3.87;2.20;;;;;;;;;;5018195;28;20624;-70
2021/10/22 19:42:10;;;;;;;4.87;2.40;;;;;;;;;;5018758;28;20216;-70
2021/10/22 19:44:38;;;;;;;3.13;2.10;;;;;;;;;;5018517;28;20208;-70
2021/10/22 19:47:07;;;;;;;3.97;1.60;;;;;;;;;;5018617;28;20219;-70
2021/10/22 19:49:35;;;;;;;5.80;2.00;;;;;;;;;;5018456;28;20224;-70
2021/10/22 19:52:06;;;;;;;1.70;1.60;;;;;;;;;;5018449;28;20215;-70
2021/10/22 19:54:34;;;;;;;3.57;1.70;;;;;;;;;;5018498;28;20647;-70
2021/10/22 19:57:02;;;;;;;5.03;1.77;;;;;;;;;;5017780;28;20196;-67
2021/10/22 19:59:31;;;;;;;4.47;2.17;;;;;;;;;;5018114;28;20234;-71
2021/10/22 20:01:59;;;;;;;5.50;1.77;;;;;;;;;;5017093;28;20227;-68
2021/10/22 20:04:28;;;;;;;6.10;2.30;;;;;;;;;;5017423;28;20209;-66
2021/10/22 20:06:58;;;;;;;2.43;1.80;;;;;;;;;;5017785;28;20215;-67
2021/10/22 20:09:28;;;;;;;2.30;1.80;;;;;;;;;;5015380;28;20228;-66
2021/10/22 20:11:56;;;;;;;3.03;1.90;;;;;;;;;;5017635;28;20204;-68
2021/10/22 20:14:24;;;;;;;3.57;1.83;;;;;;;;;;5016653;28;20207;-66
2021/10/22 20:16:52;;;;;;;3.70;2.20;;;;;;;;;;5017683;28;20270;-67
2021/10/22 20:19:20;;;;;;;5.33;2.30;;;;;;;;;;5017651;28;20291;-68
2021/10/22 20:21:50;;;;;;;2.27;1.93;;;;;;;;;;5017718;28;20239;-68
2021/10/22 20:24:18;;;;;;;2.20;1.90;;;;;;;;;;5017784;28;20933;-66
2021/10/22 20:26:47;;;;;;;3.23;1.93;;;;;;;;;;5017944;28;20204;-67
2021/10/22 20:29:15;;;;;;;3.50;2.30;;;;;;;;;;5018118;28;20224;-67
2021/10/22 20:31:47;;;;;;;2.83;2.30;;;;;;;;;;5017640;28;20674;-68
2021/10/22 20:34:15;;;;;;;4.23;2.93;;;;;;;;;;5017663;28;20213;-68
2021/10/22 20:36:44;;;;;;;5.90;2.87;;;;;;;;;;5017742;28;20251;-69
2021/10/22 20:39:12;;;;;;;2.60;2.27;;;;;;;;;;5016743;28;20275;-69
2021/10/22 20:41:40;;;;;;;4.23;2.40;;;;;;;;;;5017631;28;20583;-68
2021/10/22 20:44:09;;;;;;;2.30;2.10;;;;;;;;;;5017360;28;20211;-68
2021/10/22 20:46:39;;;;;;;3.10;1.93;;;;;;;;;;5017904;28;20212;-68
2021/10/22 20:49:25;;;;;;;6.33;2.20;;;;;;;;;;5017290;28;20602;-68
2021/10/22 20:57:27;;;;;;;2.43;1.70;;;;;;;;;;5017682;28;20567;-68
2021/10/22 20:59:58;;;;;;;5.00;2.03;;;;;;;;;;5017342;28;20761;-67
2021/10/22 21:02:26;;;;;;;4.43;1.80;;;;;;;;;;5017963;28;20214;-67
2021/10/22 21:04:54;;;;;;;2.83;1.80;;;;;;;;;;5017399;28;20762;-67
2021/10/22 21:07:22;;;;;;;4.83;1.87;;;;;;;;;;5017940;28;20211;-67
2021/10/22 21:09:50;;;;;;;4.13;2.27;;;;;;;;;;5017501;28;20220;-67
2021/10/22 21:12:18;;;;;;;3.10;2.00;;;;;;;;;;5018005;28;20223;-67
2021/10/22 21:14:46;;;;;;;8.13;2.10;;;;;;;;;;5017860;28;20211;-67
2021/10/22 21:17:15;;;;;;;3.73;1.87;;;;;;;;;;5017808;28;20208;-67
2021/10/22 21:19:43;;;;;;;3.17;2.03;;;;;;;;;;5016814;28;20237;-67
2021/10/22 21:22:11;;;;;;;3.03;1.80;;;;;;;;;;5017461;28;20247;-67
2021/10/22 21:24:39;;;;;;;5.53;2.47;;;;;;;;;;5017760;28;20215;-67
2021/10/22 21:27:07;;;;;;;7.40;1.90;;;;;;;;;;5017422;28;20606;-67
2021/10/22 21:29:36;;;;;;;4.13;2.33;;;;;;;;;;5017207;28;20220;-67
2021/10/22 21:32:05;;;;;;;2.53;2.20;;;;;;;;;;5012771;28;20200;-67
2021/10/22 21:34:34;;;;;;;4.13;2.10;;;;;;;;;;5012938;28;20211;-67
2021/10/22 21:37:02;;;;;;;5.00;2.03;;;;;;;;;;5017605;28;20212;-67
2021/10/22 21:39:30;;;;;;;2.27;1.90;;;;;;;;;;5017383;28;20232;-67
2021/10/22 21:41:58;;;;;;;4.67;3.97;;;;;;;;;;5016423;28;20216;-67
2021/10/22 21:44:26;;;;;;;3.90;2.50;;;;;;;;;;5015372;28;20196;-67